Time;durP1;ratioP1;P1;durP2;ratioP2;P2;SDS_P1;SDS_P2;PMS_P1;PMS_P2;Temp;Humidity;BMP_temperature;BMP_pressure;BME280_temperature;BME280_humidity;BME280_pressure;Samples;Min_cycle;Max_cycle;Signal;HPM_P1;HPM_P2
2021/07/31 00:01:51;;;;;;;15.00;7.83;;;;;;;18.97;74.77;99003.85;1692581;83;21026;-65
2021/07/31 00:04:17;;;;;;;9.03;7.22;;;;;;;18.95;74.79;99006.16;1691666;83;21139;-66
2021/07/31 00:06:44;;;;;;;8.58;7.40;;;;;;;18.90;74.81;99006.38;1669855;85;21071;-65
2021/07/31 00:09:11;;;;;;;7.85;6.90;;;;;;;18.82;75.06;99004.52;1700677;83;21078;-65
2021/07/31 00:11:37;;;;;;;10.15;7.42;;;;;;;18.79;75.37;99004.64;1699467;82;21625;-65
2021/07/31 00:14:05;;;;;;;11.00;7.05;;;;;;;18.78;75.48;99004.41;1705944;83;21055;-65
2021/07/31 00:16:31;;;;;;;10.38;7.10;;;;;;;18.78;75.68;99001.65;1713117;83;21071;-67
2021/07/31 00:18:58;;;;;;;10.20;6.97;;;;;;;18.74;75.98;99001.32;1693898;83;21062;-65
2021/07/31 00:21:24;;;;;;;;;;;;;;;18.69;76.23;99004.29;1693135;83;21107;-65
2021/07/31 00:23:50;;;;;;;10.93;7.35;;;;;;;18.66;76.37;98996.70;1693374;83;20211;-66
2021/07/31 00:26:17;;;;;;;;;;;;;;;18.61;76.63;98994.97;1713030;83;21087;-64
2021/07/31 00:28:44;;;;;;;;;;;;;;;18.65;76.74;98995.09;1703291;83;20143;-64
2021/07/31 00:31:10;;;;;;;9.80;7.15;;;;;;;18.65;76.81;98999.23;1699702;83;20155;-65
2021/07/31 00:33:37;;;;;;;8.83;7.60;;;;;;;18.64;76.85;99003.13;1695984;83;21015;-65
2021/07/31 00:36:04;;;;;;;9.83;7.45;;;;;;;18.65;76.72;99003.36;1700336;83;21392;-65
2021/07/31 00:38:30;;;;;;;11.73;8.20;;;;;;;18.60;76.71;99003.60;1690266;83;21066;-65
2021/07/31 00:40:57;;;;;;;10.23;7.50;;;;;;;18.56;76.68;98999.34;1692720;83;21059;-65
2021/07/31 00:43:23;;;;;;;8.68;6.97;;;;;;;18.58;76.62;98996.23;1713557;83;21051;-65
2021/07/31 00:45:49;;;;;;;;;;;;;;;18.60;76.59;98995.33;1712733;83;21072;-65
2021/07/31 00:48:16;;;;;;;11.35;7.42;;;;;;;18.63;76.50;98997.39;1690032;83;20134;-66
2021/07/31 00:50:44;;;;;;;8.80;6.87;;;;;;;18.60;76.55;98993.95;1681729;85;21097;-65
2021/07/31 00:53:11;;;;;;;10.70;7.85;;;;;;;18.61;76.66;98996.34;1692665;83;20995;-65
2021/07/31 00:55:39;;;;;;;11.35;7.72;;;;;;;18.62;76.68;98993.02;1699823;82;21059;-65
2021/07/31 00:58:05;;;;;;;;;;;;;;;18.57;76.81;98993.23;1717748;83;21556;-66
2021/07/31 01:00:36;;;;;;;12.53;7.40;;;;;;;18.56;76.62;98995.78;1701828;83;20167;-65
2021/07/31 01:03:02;;;;;;;;;;;;;;;18.51;76.60;98998.17;1706412;83;21323;-65
2021/07/31 01:05:29;;;;;;;12.53;7.72;;;;;;;18.52;76.53;98997.61;1695830;83;20166;-65
2021/07/31 01:07:56;;;;;;;11.05;7.25;;;;;;;18.48;76.58;98996.64;1707546;83;21095;-65
2021/07/31 01:10:23;;;;;;;10.25;7.37;;;;;;;18.47;76.55;98988.94;1703048;83;21541;-65
2021/07/31 01:12:51;;;;;;;9.30;7.70;;;;;;;18.48;76.50;98998.83;1685895;85;21704;-65
2021/07/31 01:15:17;;;;;;;10.15;7.80;;;;;;;18.47;76.57;98996.41;1687580;85;21138;-66
2021/07/31 01:17:44;;;;;;;10.80;7.78;;;;;;;18.44;76.70;98995.14;1703419;83;21079;-65
2021/07/31 01:20:12;;;;;;;9.35;7.20;;;;;;;18.42;76.72;98989.75;1714647;83;21087;-65
2021/07/31 01:22:40;;;;;;;11.70;7.20;;;;;;;18.44;76.67;98989.63;1714331;83;21047;-65
2021/07/31 01:25:09;;;;;;;10.75;7.87;;;;;;;18.45;76.66;98991.25;1753074;81;21012;-65
2021/07/31 01:27:36;;;;;;;11.20;7.22;;;;;;;18.44;76.58;98984.69;1755872;81;21054;-66
2021/07/31 01:30:06;;;;;;;10.53;7.80;;;;;;;18.43;76.53;98988.58;1733214;81;21051;-66
2021/07/31 01:32:32;;;;;;;10.00;7.60;;;;;;;18.42;76.48;98986.42;1738406;81;21047;-65
2021/07/31 01:34:59;;;;;;;;;;;;;;;18.41;76.55;98983.42;1752832;81;21058;-66
2021/07/31 01:37:30;;;;;;;9.33;7.70;;;;;;;18.42;76.79;98985.05;1746367;81;20400;-66
2021/07/31 01:39:56;;;;;;;11.78;8.35;;;;;;;18.38;76.87;98986.30;1752554;81;20994;-66
2021/07/31 01:42:23;;;;;;;12.15;8.15;;;;;;;18.33;76.83;98981.00;1736721;81;21042;-66
2021/07/31 01:44:49;;;;;;;;;;;;;;;18.29;77.04;98986.95;1754994;81;21058;-66
2021/07/31 01:47:17;;;;;;;11.55;8.10;;;;;;;18.27;77.06;98985.13;1747492;81;20097;-67
2021/07/31 01:49:44;;;;;;;11.93;7.50;;;;;;;18.23;77.06;98984.76;1733404;81;21621;-66
2021/07/31 01:52:11;;;;;;;11.83;8.53;;;;;;;18.22;76.98;98986.70;1739270;81;21094;-66
2021/07/31 01:54:38;;;;;;;11.95;7.87;;;;;;;18.24;76.89;98985.00;1755945;81;21043;-66
2021/07/31 01:57:05;;;;;;;10.50;8.15;;;;;;;18.23;76.78;98987.52;1746190;81;21580;-66
2021/07/31 01:59:42;;;;;;;10.93;7.85;;;;;;;18.24;76.63;98985.80;1744463;81;21656;-66
2021/07/31 02:02:10;;;;;;;10.30;8.88;;;;;;;18.21;76.65;98989.81;1743462;81;21688;-67
2021/07/31 02:04:38;;;;;;;10.53;7.97;;;;;;;18.17;76.76;98991.63;1679391;85;21543;-68
2021/07/31 02:07:24;;;;;;;11.48;7.42;;;;;;;18.14;76.89;98999.20;1701480;83;21063;-66
2021/07/31 02:09:52;;;;;;;8.40;7.33;;;;;;;18.12;76.87;98987.70;1689206;83;21039;-66
2021/07/31 02:12:18;;;;;;;12.65;8.10;;;;;;;18.15;77.04;98999.41;1698029;83;22042;-66
2021/07/31 02:14:47;;;;;;;8.93;7.53;;;;;;;18.15;77.16;99004.92;1693727;83;21051;-66
2021/07/31 02:17:16;;;;;;;12.10;8.23;;;;;;;18.15;77.03;99001.60;1688010;83;21091;-66
2021/07/31 02:19:44;;;;;;;9.75;8.55;;;;;;;18.13;77.03;99008.60;1736068;81;21050;-66
2021/07/31 02:22:12;;;;;;;10.30;7.90;;;;;;;18.08;77.06;99009.61;1751843;81;21042;-66
2021/07/31 02:24:41;;;;;;;10.63;7.87;;;;;;;18.03;76.98;99015.31;1691378;81;21042;-67
2021/07/31 02:27:25;;;;;;;11.68;7.65;;;;;;;18.01;77.00;99022.31;1740440;81;21047;-67
2021/07/31 02:29:54;;;;;;;15.35;8.18;;;;;;;17.98;77.16;99015.54;1741325;81;21070;-66
2021/07/31 02:32:20;;;;;;;;;;;;;;;17.98;77.26;99011.97;1744936;81;21044;-66
2021/07/31 02:34:50;;;;;;;9.55;7.35;;;;;;;17.98;77.29;99014.73;1750392;81;20099;-66
2021/07/31 02:37:17;;;;;;;10.40;7.90;;;;;;;17.92;77.62;99016.90;1738611;81;21027;-66
2021/07/31 02:39:45;;;;;;;12.25;8.20;;;;;;;17.92;77.78;99021.03;1731616;81;21090;-67
2021/07/31 02:42:13;;;;;;;12.78;7.90;;;;;;;17.88;77.93;99022.84;1748126;81;21526;-66
2021/07/31 02:44:40;;;;;;;12.10;8.15;;;;;;;17.87;77.97;99017.09;1751735;81;21472;-66
2021/07/31 02:47:09;;;;;;;12.37;7.97;;;;;;;17.88;77.99;99020.89;1757487;81;21561;-66
2021/07/31 02:49:37;;;;;;;10.40;8.05;;;;;;;17.89;78.10;99013.41;1746626;81;20983;-66
2021/07/31 02:52:04;;;;;;;10.82;7.90;;;;;;;17.91;78.18;99015.28;1731293;81;21062;-66
2021/07/31 02:54:41;;;;;;;10.00;8.10;;;;;;;17.94;78.21;99013.79;1691843;85;21023;-66
2021/07/31 02:57:08;;;;;;;11.05;7.87;;;;;;;17.96;78.24;99015.66;1696504;83;21509;-66
2021/07/31 02:59:35;;;;;;;13.83;8.40;;;;;;;17.99;78.26;99028.17;1708161;82;21197;-66
2021/07/31 03:02:03;;;;;;;13.93;8.38;;;;;;;18.02;78.25;99030.25;1714039;82;21081;-67
2021/07/31 03:04:31;;;;;;;10.43;8.30;;;;;;;18.03;78.32;99029.08;1737835;82;21513;-67
2021/07/31 03:07:00;;;;;;;13.38;8.15;;;;;;;18.01;78.44;99026.44;1697109;82;21569;-66
2021/07/31 03:09:27;;;;;;;11.65;8.38;;;;;;;18.02;78.48;99030.25;1694391;82;21528;-67
2021/07/31 03:11:53;;;;;;;10.85;7.85;;;;;;;18.06;78.40;99034.51;1699059;82;21100;-67
2021/07/31 03:14:21;;;;;;;13.40;8.30;;;;;;;18.09;78.40;99033.83;1732598;82;21046;-66
2021/07/31 03:16:47;;;;;;;12.15;8.15;;;;;;;18.13;78.39;99030.64;1705375;83;21073;-66
2021/07/31 03:19:17;;;;;;;11.85;8.28;;;;;;;18.16;78.28;99031.33;1719704;82;21675;-66
2021/07/31 03:21:45;;;;;;;11.25;8.18;;;;;;;18.18;78.20;99032.59;1682383;83;21128;-66
2021/07/31 03:24:16;;;;;;;14.05;8.50;;;;;;;18.19;78.21;99035.59;1727786;82;21031;-66
2021/07/31 03:26:44;;;;;;;10.58;8.33;;;;;;;18.24;78.21;99036.77;1737772;82;21026;-66
2021/07/31 03:29:12;;;;;;;11.90;8.58;;;;;;;18.26;78.24;99041.36;1702929;84;21052;-65
2021/07/31 03:31:38;;;;;;;14.58;8.70;;;;;;;18.28;78.39;99041.03;1701303;84;21709;-66
2021/07/31 03:34:05;;;;;;;12.10;8.13;;;;;;;18.36;78.28;99040.93;1720207;82;21026;-65
2021/07/31 03:36:32;;;;;;;13.48;8.05;;;;;;;18.47;78.05;99034.98;1698037;84;21046;-65
2021/07/31 03:39:07;;;;;;;11.05;7.85;;;;;;;18.55;77.80;99034.13;1705166;84;21003;-65
2021/07/31 03:41:37;;;;;;;12.15;7.97;;;;;;;18.65;77.62;99032.30;1711335;82;21546;-66
2021/07/31 03:44:05;;;;;;;10.38;7.60;;;;;;;18.66;77.65;99024.27;1727344;82;21057;-65
2021/07/31 03:46:33;;;;;;;10.48;8.08;;;;;;;18.81;77.85;99037.41;1658129;85;21054;-66
2021/07/31 03:49:00;;;;;;;10.65;7.95;;;;;;;19.03;77.78;99043.84;1711353;82;20967;-66
2021/07/31 03:51:28;;;;;;;12.28;8.03;;;;;;;19.32;77.54;99046.95;1709538;82;21178;-66
2021/07/31 03:53:55;;;;;;;11.55;7.90;;;;;;;19.63;77.24;99043.02;1716104;82;21065;-66
2021/07/31 03:56:22;;;;;;;12.13;8.50;;;;;;;19.93;76.44;99040.77;1732205;82;21073;-66
2021/07/31 03:58:50;;;;;;;11.20;8.23;;;;;;;20.16;75.19;99041.83;1710871;82;20999;-67
2021/07/31 04:01:24;;;;;;;10.65;7.62;;;;;;;20.38;74.45;99047.98;1666854;85;21595;-66
2021/07/31 04:03:53;;;;;;;12.95;7.33;;;;;;;20.62;73.44;99050.04;1682568;85;21038;-66
2021/07/31 04:06:19;;;;;;;13.10;7.42;;;;;;;20.97;72.72;99052.95;1679041;85;21101;-66
2021/07/31 04:08:45;;;;;;;12.20;7.50;;;;;;;21.32;71.94;99055.81;1686492;85;21054;-66
2021/07/31 04:11:12;;;;;;;9.33;7.42;;;;;;;21.67;70.90;99048.91;1702442;83;21081;-66
2021/07/31 04:13:43;;;;;;;12.15;7.75;;;;;;;21.99;70.12;99047.67;1643740;84;21014;-66
2021/07/31 04:16:11;;;;;;;10.95;7.55;;;;;;;22.29;68.53;99050.07;1676079;84;21154;-66
2021/07/31 04:18:40;;;;;;;10.95;7.40;;;;;;;22.52;67.18;99048.74;1688531;85;21520;-66
2021/07/31 04:21:08;;;;;;;11.53;7.90;;;;;;;22.74;66.67;99055.53;1678541;85;21093;-66
2021/07/31 04:23:35;;;;;;;9.43;7.15;;;;;;;22.94;65.26;99055.68;1680809;85;21022;-66
2021/07/31 04:26:16;;;;;;;11.95;8.00;;;;;;;23.07;64.44;99042.41;1715262;83;21564;-66
2021/07/31 04:28:42;;;;;;;9.58;7.22;;;;;;;23.18;64.22;99046.97;1681688;83;20990;-66
2021/07/31 04:31:11;;;;;;;10.20;7.25;;;;;;;23.33;63.98;99045.22;1690533;85;21639;-66
2021/07/31 04:33:37;;;;;;;9.55;7.50;;;;;;;23.51;63.59;99053.28;1692846;83;20994;-66
2021/07/31 04:36:05;;;;;;;10.03;7.22;;;;;;;23.79;63.18;99050.11;1687897;85;21089;-66
2021/07/31 04:38:31;;;;;;;14.35;7.17;;;;;;;24.10;62.19;99043.36;1691661;85;21003;-67
2021/07/31 04:40:58;;;;;;;10.25;7.35;;;;;;;24.34;61.41;99041.50;1715597;83;21026;-66
2021/07/31 04:43:24;;;;;;;8.10;7.10;;;;;;;24.42;60.40;99047.95;1713782;83;21091;-67
2021/07/31 04:45:52;;;;;;;9.53;6.83;;;;;;;24.49;60.39;99044.66;1707528;83;21682;-66
2021/07/31 04:48:18;;;;;;;11.18;6.53;;;;;;;24.73;60.80;99048.87;1699623;83;21093;-66
2021/07/31 04:50:45;;;;;;;8.83;6.60;;;;;;;25.06;59.59;99041.07;1691709;83;21557;-66
2021/07/31 04:53:11;;;;;;;8.30;6.87;;;;;;;25.36;59.04;99033.96;1685819;83;21041;-67
2021/07/31 04:55:38;;;;;;;10.10;6.50;;;;;;;25.71;58.32;99038.41;1685774;85;21792;-66
2021/07/31 04:58:04;;;;;;;11.88;6.40;;;;;;;25.99;55.89;99042.75;1710032;83;21127;-66
2021/07/31 05:00:31;;;;;;;10.32;6.30;;;;;;;26.17;55.85;99047.01;1717165;83;21515;-66
2021/07/31 05:03:05;;;;;;;8.35;5.97;;;;;;;26.50;55.82;99051.55;1679603;84;21584;-67
2021/07/31 05:05:36;;;;;;;8.75;5.92;;;;;;;26.83;54.58;99055.43;1755549;79;21021;-66
2021/07/31 05:08:05;;;;;;;9.45;6.12;;;;;;;27.00;53.51;99056.64;1744576;81;20991;-64
2021/07/31 05:10:32;;;;;;;7.80;5.87;;;;;;;26.97;53.44;99056.05;1703384;81;20991;-65
2021/07/31 05:12:59;;;;;;;9.45;5.95;;;;;;;27.04;53.91;99058.84;1753441;81;21054;-64
2021/07/31 05:15:26;;;;;;;7.37;5.17;;;;;;;27.25;53.76;99064.44;1727794;81;20999;-65
2021/07/31 05:17:53;;;;;;;8.23;6.03;;;;;;;27.42;52.49;99066.43;1722223;81;21058;-65
2021/07/31 05:20:20;;;;;;;7.40;5.22;;;;;;;27.40;51.74;99068.84;1739764;81;20999;-65
2021/07/31 05:22:46;;;;;;;6.87;5.40;;;;;;;27.55;50.66;99063.48;1745421;81;21054;-64
2021/07/31 05:25:13;;;;;;;8.05;5.60;;;;;;;27.66;49.90;99066.26;1732047;81;21022;-64
2021/07/31 05:27:39;;;;;;;6.72;5.55;;;;;;;27.77;49.47;99067.05;1744880;81;21568;-66
2021/07/31 05:30:09;;;;;;;6.50;5.55;;;;;;;27.69;48.81;99070.45;1730724;80;20983;-64
2021/07/31 05:32:35;;;;;;;8.80;5.80;;;;;;;27.53;49.38;99072.84;1718470;81;21018;-65
2021/07/31 05:35:02;;;;;;;8.65;5.60;;;;;;;27.52;49.83;99071.27;1739515;81;21568;-66
2021/07/31 05:37:31;;;;;;;8.30;5.28;;;;;;;27.69;50.04;99077.44;1742705;81;21460;-65
2021/07/31 05:39:59;;;;;;;6.15;5.55;;;;;;;27.82;49.81;99070.81;1730376;81;20991;-65
2021/07/31 05:42:26;;;;;;;10.45;6.00;;;;;;;27.89;49.44;99079.19;1734127;81;21090;-65
2021/07/31 05:45:00;;;;;;;8.53;6.08;;;;;;;27.96;49.40;99073.57;1738060;81;20971;-65
2021/07/31 05:47:27;;;;;;;7.10;5.92;;;;;;;28.14;49.76;99070.16;1753686;81;21078;-65
2021/07/31 05:49:56;;;;;;;7.03;5.83;;;;;;;28.28;48.83;99074.09;1756062;81;20987;-66
2021/07/31 05:52:33;;;;;;;7.40;5.60;;;;;;;28.51;48.77;99065.41;1757080;81;21062;-65
2021/07/31 05:54:53;;;;;;;7.97;5.67;;;;;;;28.71;48.24;99067.12;1741644;81;21045;-65
2021/07/31 05:57:19;;;;;;;6.67;5.25;;;;;;;28.91;47.55;99065.39;1734037;81;21703;-65
2021/07/31 05:59:46;;;;;;;7.70;5.22;;;;;;;29.07;47.75;99070.48;1730159;81;21002;-66
2021/07/31 06:02:14;;;;;;;6.62;4.20;;;;;;;29.24;46.96;99067.35;1751144;81;21030;-64
2021/07/31 06:04:40;;;;;;;7.40;4.78;;;;;;;29.49;47.15;99077.19;1755473;81;21030;-65
2021/07/31 06:07:08;;;;;;;6.08;4.62;;;;;;;29.84;46.50;99070.46;1751158;81;21106;-65
2021/07/31 06:09:35;;;;;;;8.88;4.75;;;;;;;30.22;46.01;99072.63;1743168;81;21046;-65
2021/07/31 06:12:02;;;;;;;7.37;4.33;;;;;;;30.38;44.92;99067.84;1727942;81;21050;-65
2021/07/31 06:15:45;;;;;;;8.15;4.42;;;;;;;30.67;44.30;99071.90;1797006;79;22671;-64
2021/07/31 06:18:12;;;;;;;6.65;4.00;;;;;;;30.80;44.17;99077.73;1722194;82;21038;-65
2021/07/31 06:20:39;;;;;;;7.22;3.90;;;;;;;31.01;43.46;99082.46;1715641;83;21047;-64
2021/07/31 06:23:05;;;;;;;5.47;3.90;;;;;;;31.29;43.61;99078.41;1746046;82;21474;-65
2021/07/31 06:25:31;;;;;;;7.85;4.33;;;;;;;31.63;42.89;99083.91;1724402;82;21027;-65
2021/07/31 06:27:58;;;;;;;4.97;3.42;;;;;;;31.81;41.35;99074.53;1738494;82;21560;-65
2021/07/31 06:30:24;;;;;;;6.90;3.95;;;;;;;31.88;40.88;99082.05;1730788;82;21047;-65
2021/07/31 06:32:50;;;;;;;5.17;4.20;;;;;;;31.94;40.30;99079.70;1745588;80;21086;-65
2021/07/31 06:35:17;;;;;;;7.28;4.53;;;;;;;31.87;39.94;99073.41;1717664;82;21018;-65
2021/07/31 06:37:43;;;;;;;7.58;3.80;;;;;;;31.68;39.38;99072.75;1724685;81;21034;-66
2021/07/31 06:40:10;;;;;;;8.93;4.30;;;;;;;31.51;40.28;99071.23;1720163;82;21561;-65
2021/07/31 06:42:37;;;;;;;8.20;3.95;;;;;;;31.37;40.37;99070.66;1726429;82;21058;-66
2021/07/31 06:45:05;;;;;;;6.83;4.17;;;;;;;31.27;40.30;99066.00;1736084;82;21569;-66
2021/07/31 06:47:32;;;;;;;5.55;4.30;;;;;;;31.19;40.17;99071.55;1734025;82;21033;-65
2021/07/31 06:49:58;;;;;;;7.03;4.03;;;;;;;31.14;40.42;99071.45;1722336;83;21074;-65
2021/07/31 06:52:24;;;;;;;6.95;4.33;;;;;;;31.13;40.27;99076.88;1741030;82;21031;-65
2021/07/31 06:54:51;;;;;;;6.62;4.10;;;;;;;31.18;40.85;99072.79;1713654;82;21078;-65
2021/07/31 06:57:17;;;;;;;5.92;3.90;;;;;;;31.37;40.10;99070.66;1721337;82;21110;-66
2021/07/31 06:59:44;;;;;;;5.60;4.20;;;;;;;31.49;40.22;99068.05;1726795;82;21045;-65
2021/07/31 07:02:11;;;;;;;5.95;3.83;;;;;;;31.59;39.33;99076.14;1737966;82;21552;-65
2021/07/31 07:04:37;;;;;;;5.62;4.40;;;;;;;31.62;39.38;99071.66;1730502;82;21046;-65
2021/07/31 07:07:04;;;;;;;7.05;4.25;;;;;;;31.60;38.74;99075.53;1730286;83;21078;-65
2021/07/31 07:09:31;;;;;;;5.50;4.40;;;;;;;31.51;39.34;99061.40;1714738;82;21754;-65
2021/07/31 07:11:58;;;;;;;9.65;5.80;;;;;;;31.43;39.05;99067.53;1743844;80;21034;-66
2021/07/31 07:14:25;;;;;;;13.60;6.22;;;;;;;31.32;39.94;99062.08;1729411;83;21072;-68
2021/07/31 07:16:52;;;;;;;6.20;4.37;;;;;;;31.26;39.78;99054.56;1729620;81;21907;-65
2021/07/31 07:19:18;;;;;;;5.47;4.40;;;;;;;31.30;39.63;99060.93;1732458;82;21069;-64
2021/07/31 07:21:45;;;;;;;6.33;4.22;;;;;;;31.39;39.55;99059.16;1731106;82;21047;-64
2021/07/31 07:24:12;;;;;;;5.33;4.47;;;;;;;31.47;38.23;99055.00;1736422;82;21040;-65
2021/07/31 07:26:38;;;;;;;8.18;4.50;;;;;;;31.52;39.05;99057.98;1726857;82;21086;-66
2021/07/31 07:29:05;;;;;;;7.60;4.17;;;;;;;31.65;39.08;99055.33;1720526;82;21043;-66
2021/07/31 07:31:31;;;;;;;11.68;4.70;;;;;;;31.89;38.87;99055.47;1732051;81;21082;-65
2021/07/31 07:40:25;;;;;;;5.58;4.17;;;;;;;32.09;37.10;99063.98;1793612;79;23459;-64
2021/07/31 07:42:52;;;;;;;5.42;4.00;;;;;;;32.03;36.89;99065.84;1729051;82;21079;-65
2021/07/31 07:45:18;;;;;;;5.03;3.90;;;;;;;32.05;37.31;99068.24;1754532;80;21024;-64
2021/07/31 07:47:45;;;;;;;5.47;4.03;;;;;;;32.16;36.82;99072.28;1752754;80;21555;-64
2021/07/31 07:50:11;;;;;;;5.47;4.05;;;;;;;32.30;37.59;99067.16;1757121;80;21060;-64
2021/07/31 07:52:38;;;;;;;5.33;3.80;;;;;;;32.45;37.62;99064.20;1750566;80;21593;-64
2021/07/31 07:55:05;;;;;;;6.40;3.90;;;;;;;32.64;37.82;99071.70;1763683;80;21091;-64
2021/07/31 07:57:32;;;;;;;3.90;3.42;;;;;;;32.69;35.54;99066.36;1744040;80;20995;-63
2021/07/31 08:00:00;;;;;;;4.33;3.62;;;;;;;32.68;35.10;99066.17;1768908;80;21038;-64
2021/07/31 08:02:27;;;;;;;5.85;3.72;;;;;;;32.70;36.08;99073.56;1761395;80;21086;-64
2021/07/31 08:04:53;;;;;;;4.00;3.52;;;;;;;32.65;34.76;99067.66;1764453;80;21608;-65
2021/07/31 08:07:19;;;;;;;5.75;3.50;;;;;;;32.60;35.64;99062.52;1765692;80;21110;-65
2021/07/31 08:09:46;;;;;;;8.15;3.52;;;;;;;32.62;34.89;99070.73;1738993;80;21023;-66
2021/07/31 08:12:12;;;;;;;9.33;4.00;;;;;;;32.61;35.45;99073.37;1759230;80;21095;-66
2021/07/31 08:14:40;;;;;;;5.40;3.60;;;;;;;32.60;35.92;99067.55;1750758;80;21083;-66
2021/07/31 08:17:07;;;;;;;7.17;3.70;;;;;;;32.60;34.95;99070.97;1725851;80;21082;-66
2021/07/31 08:19:33;;;;;;;4.42;3.40;;;;;;;32.51;35.11;99063.09;1696909;83;21050;-66
2021/07/31 08:21:59;;;;;;;5.47;3.65;;;;;;;32.47;35.17;99067.41;1726012;82;21102;-66
2021/07/31 08:24:26;;;;;;;6.17;3.47;;;;;;;32.44;34.70;99068.88;1735256;83;21611;-66
2021/07/31 08:26:52;;;;;;;4.20;3.35;;;;;;;32.42;35.27;99071.33;1724816;82;21043;-66
2021/07/31 08:29:19;;;;;;;4.62;3.40;;;;;;;32.48;35.77;99073.83;1715219;83;21104;-66
2021/07/31 08:31:45;;;;;;;6.58;3.50;;;;;;;32.53;35.21;99073.30;1733583;82;21062;-66
2021/07/31 08:34:15;;;;;;;5.92;3.40;;;;;;;32.59;35.67;99073.63;1735221;82;21055;-66
2021/07/31 08:36:42;;;;;;;4.65;3.00;;;;;;;32.70;35.12;99065.10;1733718;82;21030;-66
2021/07/31 08:39:08;;;;;;;5.97;3.20;;;;;;;32.82;33.80;99067.87;1690132;83;21060;-66
2021/07/31 08:41:35;;;;;;;4.47;3.40;;;;;;;32.89;35.14;99058.64;1744217;81;21088;-66
2021/07/31 08:44:02;;;;;;;7.55;3.22;;;;;;;32.94;33.74;99057.33;1738291;82;21068;-66
2021/07/31 08:46:29;;;;;;;6.12;3.30;;;;;;;32.96;34.98;99070.36;1739671;82;21023;-66
2021/07/31 08:48:56;;;;;;;4.95;3.00;;;;;;;33.03;34.24;99060.33;1745597;82;21020;-66
2021/07/31 08:51:24;;;;;;;6.70;3.20;;;;;;;33.14;34.97;99056.67;1742400;81;21039;-66
2021/07/31 08:53:50;;;;;;;7.05;3.25;;;;;;;33.28;34.59;99049.88;1741629;81;21057;-66
2021/07/31 08:56:17;;;;;;;6.08;3.55;;;;;;;33.42;34.38;99050.31;1738624;81;21043;-66
2021/07/31 08:58:44;;;;;;;8.85;3.20;;;;;;;33.55;34.58;99052.44;1747535;81;21602;-66
2021/07/31 09:01:10;;;;;;;8.93;3.40;;;;;;;33.59;33.38;99056.73;1738640;81;21115;-66
2021/07/31 09:03:48;;;;;;;6.25;3.30;;;;;;;33.60;33.06;99055.50;1692962;84;21039;-65
2021/07/31 09:06:30;;;;;;;4.60;3.30;;;;;;;33.53;32.77;99054.27;1753250;81;22483;-66
2021/07/31 09:08:57;;;;;;;4.60;2.90;;;;;;;33.40;34.49;99046.36;1737639;82;21031;-66
2021/07/31 09:11:24;;;;;;;4.58;2.90;;;;;;;33.19;33.24;99047.70;1737553;82;21071;-66
2021/07/31 09:14:14;;;;;;;4.83;3.17;;;;;;;33.22;33.83;99041.78;1739667;81;21528;-66
2021/07/31 09:16:44;;;;;;;4.70;3.22;;;;;;;33.39;33.97;99047.59;1757843;81;21048;-66
2021/07/31 09:19:13;;;;;;;4.72;3.17;;;;;;;33.42;32.53;99049.52;1752278;81;21070;-66
2021/07/31 09:21:43;;;;;;;3.95;3.12;;;;;;;33.52;33.39;99049.86;1727821;81;21075;-66
2021/07/31 09:24:22;;;;;;;4.20;3.37;;;;;;;33.64;32.33;99053.41;1744456;81;21107;-66
2021/07/31 09:26:52;;;;;;;5.00;3.17;;;;;;;33.59;31.40;99053.91;1742831;82;21585;-66
2021/07/31 09:29:25;;;;;;;3.90;3.00;;;;;;;33.43;31.12;99041.23;1746837;81;21089;-66
2021/07/31 09:32:06;;;;;;;5.20;3.20;;;;;;;33.25;30.96;99036.66;1740208;81;21061;-66
2021/07/31 09:34:46;;;;;;;3.27;2.77;;;;;;;33.04;31.79;99038.75;1738585;81;21091;-66
2021/07/31 09:37:23;;;;;;;6.28;2.95;;;;;;;33.00;33.38;99040.86;1745148;82;21079;-66
2021/07/31 09:39:57;;;;;;;3.92;3.10;;;;;;;33.12;32.46;99044.25;1740406;82;21479;-66
2021/07/31 09:42:34;;;;;;;5.40;3.10;;;;;;;33.18;31.15;99038.25;1743115;82;21007;-66
2021/07/31 09:45:11;;;;;;;4.62;2.70;;;;;;;33.13;30.86;99035.95;1746132;82;21090;-66
2021/07/31 09:48:00;;;;;;;3.55;3.17;;;;;;;33.19;32.43;99032.80;1755431;81;21131;-66
2021/07/31 09:50:42;;;;;;;4.90;3.10;;;;;;;33.19;32.13;99031.39;1743921;81;21051;-67
2021/07/31 09:53:14;;;;;;;5.53;3.35;;;;;;;33.15;32.81;99030.67;1770441;81;21043;-66
2021/07/31 09:55:48;;;;;;;4.67;3.05;;;;;;;33.12;32.75;99023.10;1758475;80;21004;-66
2021/07/31 09:58:17;;;;;;;4.62;3.20;;;;;;;33.22;33.68;99025.66;1769046;80;21023;-66
2021/07/31 10:00:46;;;;;;;3.90;2.90;;;;;;;33.36;32.59;99023.09;1705185;84;21635;-66
2021/07/31 10:03:13;;;;;;;4.72;3.10;;;;;;;33.45;32.99;99021.83;1715979;83;21441;-66
2021/07/31 10:05:41;;;;;;;4.90;3.62;;;;;;;33.29;31.54;99019.04;1756597;81;21037;-65
2021/07/31 10:08:08;;;;;;;4.70;3.20;;;;;;;32.98;32.63;99024.22;1696529;84;21028;-65
2021/07/31 10:10:35;;;;;;;3.72;3.10;;;;;;;33.07;32.85;99030.02;1668457;83;21115;-65
2021/07/31 10:13:01;;;;;;;4.22;3.50;;;;;;;33.21;31.86;99020.45;1750404;81;21538;-64
2021/07/31 10:15:29;;;;;;;4.53;3.12;;;;;;;33.29;31.88;99013.40;1747091;81;21070;-65
2021/07/31 10:17:56;;;;;;;7.37;3.50;;;;;;;33.37;31.98;99011.34;1749903;81;21461;-65
2021/07/31 10:20:26;;;;;;;3.87;2.85;;;;;;;33.50;31.87;99017.87;1767250;81;21023;-65
2021/07/31 10:22:53;;;;;;;3.33;3.00;;;;;;;33.60;32.39;99017.41;1743844;81;21063;-65
2021/07/31 10:25:20;;;;;;;3.27;2.95;;;;;;;33.69;32.29;99016.20;1746597;81;21051;-66
2021/07/31 10:27:48;;;;;;;3.95;3.12;;;;;;;33.75;30.69;99015.03;1727498;82;21063;-66
2021/07/31 10:30:38;;;;;;;5.05;2.80;;;;;;;33.71;28.85;99009.48;1751225;81;21566;-65
2021/07/31 10:33:06;;;;;;;3.37;2.85;;;;;;;33.62;28.47;99009.92;1726674;82;21003;-65
2021/07/31 10:35:37;;;;;;;3.35;2.90;;;;;;;33.27;28.36;99009.59;1765148;81;20988;-65
2021/07/31 10:38:07;;;;;;;3.58;3.10;;;;;;;33.06;29.00;99005.88;1709017;83;20987;-66
2021/07/31 10:40:42;;;;;;;5.58;3.60;;;;;;;33.18;32.21;99015.69;1757818;81;21843;-65
2021/07/31 10:43:11;;;;;;;3.85;3.02;;;;;;;33.39;31.15;99008.89;1756650;81;21034;-64
2021/07/31 10:45:38;;;;;;;6.25;2.95;;;;;;;33.55;31.08;99008.70;1770417;81;21050;-66
2021/07/31 10:48:07;;;;;;;3.85;3.00;;;;;;;33.63;32.08;99016.55;1769444;81;21030;-65
2021/07/31 10:50:36;;;;;;;6.62;3.05;;;;;;;33.67;31.17;99016.45;1733507;81;20991;-66
2021/07/31 10:53:10;;;;;;;3.72;2.95;;;;;;;33.58;30.28;99012.04;1749692;81;20999;-65
2021/07/31 10:55:45;;;;;;;3.50;2.95;;;;;;;33.43;30.99;99005.98;1768920;80;21560;-65
2021/07/31 10:58:18;;;;;;;5.25;3.27;;;;;;;33.31;31.89;99005.27;1758756;80;21536;-65
2021/07/31 11:00:52;;;;;;;5.85;2.72;;;;;;;33.31;31.37;98996.81;1766176;81;21553;-66
2021/07/31 11:03:25;;;;;;;4.15;2.92;;;;;;;33.37;31.15;99003.52;1757256;81;21508;-66
2021/07/31 11:06:00;;;;;;;4.80;2.92;;;;;;;33.41;30.92;98993.71;1756992;81;21007;-66
2021/07/31 11:08:30;;;;;;;4.90;3.10;;;;;;;33.44;31.27;98987.83;1750845;81;21015;-68
2021/07/31 11:11:00;;;;;;;4.22;2.90;;;;;;;33.52;29.87;98988.58;1748848;81;21632;-68
2021/07/31 11:13:38;;;;;;;5.20;3.10;;;;;;;33.58;30.52;98985.23;1750380;81;20987;-66
2021/07/31 11:16:13;;;;;;;3.40;2.75;;;;;;;33.58;30.56;98985.23;1754322;81;21023;-67
2021/07/31 11:18:42;;;;;;;4.15;2.98;;;;;;;33.60;30.14;98990.59;1756031;81;21016;-66
2021/07/31 11:21:35;;;;;;;3.75;2.92;;;;;;;33.53;30.33;98979.50;1753120;81;21051;-67
2021/07/31 11:24:09;;;;;;;3.90;2.90;;;;;;;33.52;29.39;98973.68;1757388;81;21023;-66
2021/07/31 11:26:51;;;;;;;5.53;3.10;;;;;;;33.50;30.10;98971.32;1762777;81;21090;-66
2021/07/31 11:29:26;;;;;;;6.03;3.10;;;;;;;33.44;32.40;98975.13;1768370;81;21572;-66
2021/07/31 11:32:11;;;;;;;4.60;2.90;;;;;;;33.45;30.48;98969.03;1763472;81;21034;-66
2021/07/31 11:34:45;;;;;;;3.50;3.10;;;;;;;33.39;31.21;98962.34;1741929;81;21023;-66
2021/07/31 11:37:12;;;;;;;4.90;3.08;;;;;;;33.42;31.83;98971.94;1751652;81;21099;-66
2021/07/31 11:39:39;;;;;;;4.58;2.95;;;;;;;33.45;29.63;98969.03;1746540;81;21534;-66
2021/07/31 11:42:06;;;;;;;3.65;2.98;;;;;;;33.48;30.11;98970.16;1699862;84;21139;-66
2021/07/31 11:44:36;;;;;;;3.33;2.85;;;;;;;33.52;29.95;98966.63;1694211;84;21080;-65
2021/07/31 11:47:03;;;;;;;4.15;2.77;;;;;;;33.59;31.01;98969.25;1746156;81;21537;-66